sensor_id;sensor_type;location;lat;lon;timestamp;pressure;altitude;pressure_sealevel;temperature;humidity
39141;BME280;24875;48.436;10.298;2023-01-01T00:01:15;96674.44;;;9.19;100.00
39141;BME280;24875;48.436;10.298;2023-01-01T00:03:42;96670.94;;;9.10;100.00
39141;BME280;24875;48.436;10.298;2023-01-01T00:06:10;96678.31;;;9.07;100.00
39141;BME280;24875;48.436;10.298;2023-01-01T00:08:37;96682.34;;;9.19;100.00
39141;BME280;24875;48.436;10.298;2023-01-01T00:11:05;96687.88;;;9.16;100.00
39141;BME280;24875;48.436;10.298;2023-01-01T00:13:32;96688.53;;;9.10;100.00
39141;BME280;24875;48.436;10.298;2023-01-01T00:16:03;96690.16;;;9.11;100.00
39141;BME280;24875;48.436;10.298;2023-01-01T00:18:31;96694.09;;;9.07;100.00
39141;BME280;24875;48.436;10.298;2023-01-01T00:21:02;96692.22;;;9.00;100.00
39141;BME280;24875;48.436;10.298;2023-01-01T00:23:28;96702.25;;;8.96;100.00
39141;BME280;24875;48.436;10.298;2023-01-01T00:25:55;96705.84;;;8.95;100.00
39141;BME280;24875;48.436;10.298;2023-01-01T00:28:21;96697.81;;;8.97;100.00
39141;BME280;24875;48.436;10.298;2023-01-01T00:30:48;96699.56;;;8.88;100.00
39141;BME280;24875;48.436;10.298;2023-01-01T00:33:14;96703.81;;;8.81;100.00
39141;BME280;24875;48.436;10.298;2023-01-01T00:35:42;96695.34;;;8.95;100.00
39141;BME280;24875;48.436;10.298;2023-01-01T00:38:08;96692.03;;;8.93;100.00
39141;BME280;24875;48.436;10.298;2023-01-01T00:40:35;96692.59;;;9.05;100.00
39141;BME280;24875;48.436;10.298;2023-01-01T00:43:01;96693.81;;;9.18;100.00
39141;BME280;24875;48.436;10.298;2023-01-01T00:45:28;96691.59;;;9.39;100.00
39141;BME280;24875;48.436;10.298;2023-01-01T00:47:54;96694.13;;;9.48;100.00
39141;BME280;24875;48.436;10.298;2023-01-01T00:50:21;96683.31;;;9.67;100.00
39141;BME280;24875;48.436;10.298;2023-01-01T00:52:49;96690.28;;;9.84;100.00
39141;BME280;24875;48.436;10.298;2023-01-01T00:55:16;96688.78;;;9.89;100.00
39141;BME280;24875;48.436;10.298;2023-01-01T00:57:43;96688.66;;;9.99;100.00
39141;BME280;24875;48.436;10.298;2023-01-01T01:00:11;96684.06;;;10.09;100.00
39141;BME280;24875;48.436;10.298;2023-01-01T01:02:37;96685.56;;;10.11;100.00
39141;BME280;24875;48.436;10.298;2023-01-01T01:05:04;96688.19;;;10.19;100.00
39141;BME280;24875;48.436;10.298;2023-01-01T01:07:33;96691.50;;;10.29;100.00
39141;BME280;24875;48.436;10.298;2023-01-01T01:10:02;96698.59;;;10.29;100.00
39141;BME280;24875;48.436;10.298;2023-01-01T01:12:32;96693.47;;;10.27;100.00
39141;BME280;24875;48.436;10.298;2023-01-01T01:14:58;96688.88;;;10.21;100.00
39141;BME280;24875;48.436;10.298;2023-01-01T01:17:25;96685.56;;;10.27;100.00
39141;BME280;24875;48.436;10.298;2023-01-01T01:19:51;96692.97;;;10.39;100.00
39141;BME280;24875;48.436;10.298;2023-01-01T01:22:18;96678.00;;;10.48;100.00
39141;BME280;24875;48.436;10.298;2023-01-01T01:24:45;96677.34;;;10.62;100.00
39141;BME280;24875;48.436;10.298;2023-01-01T01:27:12;96687.19;;;10.68;100.00
39141;BME280;24875;48.436;10.298;2023-01-01T01:29:39;96675.53;;;10.54;100.00
39141;BME280;24875;48.436;10.298;2023-01-01T01:32:05;96680.44;;;10.57;100.00
39141;BME280;24875;48.436;10.298;2023-01-01T01:34:32;96683.44;;;10.54;100.00
39141;BME280;24875;48.436;10.298;2023-01-01T01:36:58;96686.41;;;10.51;100.00
39141;BME280;24875;48.436;10.298;2023-01-01T01:39:25;96683.09;;;10.49;100.00
39141;BME280;24875;48.436;10.298;2023-01-01T01:41:51;96683.91;;;10.50;100.00
39141;BME280;24875;48.436;10.298;2023-01-01T01:44:48;96687.69;;;10.71;100.00
39141;BME280;24875;48.436;10.298;2023-01-01T01:47:16;96697.41;;;10.55;100.00
39141;BME280;24875;48.436;10.298;2023-01-01T01:49:46;96684.06;;;10.48;100.00
39141;BME280;24875;48.436;10.298;2023-01-01T01:52:13;96683.09;;;10.41;100.00
39141;BME280;24875;48.436;10.298;2023-01-01T01:54:41;96678.31;;;10.53;100.00
39141;BME280;24875;48.436;10.298;2023-01-01T01:57:08;96692.16;;;10.55;100.00
39141;BME280;24875;48.436;10.298;2023-01-01T01:59:40;96683.91;;;10.50;100.00
39141;BME280;24875;48.436;10.298;2023-01-01T02:02:15;96681.78;;;10.53;100.00
39141;BME280;24875;48.436;10.298;2023-01-01T02:04:43;96679.63;;;10.41;100.00
39141;BME280;24875;48.436;10.298;2023-01-01T02:07:11;96680.31;;;10.43;100.00
39141;BME280;24875;48.436;10.298;2023-01-01T02:09:39;96675.53;;;10.31;100.00
39141;BME280;24875;48.436;10.298;2023-01-01T02:12:06;96685.06;;;10.32;100.00
39141;BME280;24875;48.436;10.298;2023-01-01T02:14:33;96684.91;;;10.25;100.00
39141;BME280;24875;48.436;10.298;2023-01-01T02:17:02;96669.44;;;10.30;100.00
39141;BME280;24875;48.436;10.298;2023-01-01T02:19:43;96667.31;;;10.41;100.00
39141;BME280;24875;48.436;10.298;2023-01-01T02:22:27;96667.44;;;10.32;100.00
39141;BME280;24875;48.436;10.298;2023-01-01T02:25:07;96674.53;;;10.32;100.00
39141;BME280;24875;48.436;10.298;2023-01-01T02:27:45;96676.84;;;10.11;100.00
39141;BME280;24875;48.436;10.298;2023-01-01T02:30:16;96687.50;;;10.01;100.00
39141;BME280;24875;48.436;10.298;2023-01-01T02:32:45;96681.41;;;9.93;100.00
39141;BME280;24875;48.436;10.298;2023-01-01T02:35:16;96677.75;;;9.86;100.00
39141;BME280;24875;48.436;10.298;2023-01-01T02:38:08;96695.66;;;9.74;100.00
39141;BME280;24875;48.436;10.298;2023-01-01T02:40:39;96691.38;;;9.73;100.00
39141;BME280;24875;48.436;10.298;2023-01-01T02:43:06;96688.09;;;9.64;100.00
39141;BME280;24875;48.436;10.298;2023-01-01T02:45:34;96707.81;;;9.68;100.00
39141;BME280;24875;48.436;10.298;2023-01-01T02:48:05;96708.66;;;9.76;100.00
39141;BME280;24875;48.436;10.298;2023-01-01T02:50:32;96706.50;;;9.71;100.00
39141;BME280;24875;48.436;10.298;2023-01-01T02:53:06;96701.78;;;9.75;100.00
39141;BME280;24875;48.436;10.298;2023-01-01T02:55:48;96705.56;;;9.80;100.00
39141;BME280;24875;48.436;10.298;2023-01-01T02:58:23;96708.81;;;9.67;100.00
39141;BME280;24875;48.436;10.298;2023-01-01T03:01:18;96700.91;;;9.67;100.00
39141;BME280;24875;48.436;10.298;2023-01-01T03:03:52;96701.56;;;9.68;100.00
39141;BME280;24875;48.436;10.298;2023-01-01T03:06:25;96692.19;;;9.66;100.00
39141;BME280;24875;48.436;10.298;2023-01-01T03:09:01;96688.22;;;9.62;100.00
39141;BME280;24875;48.436;10.298;2023-01-01T03:11:36;96691.19;;;9.59;100.00
39141;BME280;24875;48.436;10.298;2023-01-01T03:14:12;96696.59;;;9.58;100.00
39141;BME280;24875;48.436;10.298;2023-01-01T03:16:47;96700.03;;;9.58;100.00
39141;BME280;24875;48.436;10.298;2023-01-01T03:19:18;96699.22;;;9.58;100.00
39141;BME280;24875;48.436;10.298;2023-01-01T03:21:48;96694.94;;;9.57;100.00
39141;BME280;24875;48.436;10.298;2023-01-01T03:24:20;96694.50;;;9.61;100.00
39141;BME280;24875;48.436;10.298;2023-01-01T03:26:52;96707.13;;;9.58;100.00
39141;BME280;24875;48.436;10.298;2023-01-01T03:29:21;96703.22;;;9.69;100.00
39141;BME280;24875;48.436;10.298;2023-01-01T03:31:52;96707.69;;;9.77;100.00
39141;BME280;24875;48.436;10.298;2023-01-01T03:34:24;96696.34;;;9.84;100.00
39141;BME280;24875;48.436;10.298;2023-01-01T03:36:56;96701.31;;;9.95;100.00
39141;BME280;24875;48.436;10.298;2023-01-01T03:39:26;96704.97;;;10.02;100.00
39141;BME280;24875;48.436;10.298;2023-01-01T03:41:57;96713.50;;;9.96;100.00
39141;BME280;24875;48.436;10.298;2023-01-01T03:44:31;96702.50;;;10.01;100.00
39141;BME280;24875;48.436;10.298;2023-01-01T03:47:01;96701.19;;;9.97;100.00
39141;BME280;24875;48.436;10.298;2023-01-01T03:49:29;96702.00;;;9.97;100.00
39141;BME280;24875;48.436;10.298;2023-01-01T03:52:03;96716.81;;;10.06;100.00
39141;BME280;24875;48.436;10.298;2023-01-01T03:54:38;96708.59;;;10.01;100.00
39141;BME280;24875;48.436;10.298;2023-01-01T03:57:13;96698.03;;;10.01;100.00
39141;BME280;24875;48.436;10.298;2023-01-01T03:59:50;96700.69;;;10.01;100.00
39141;BME280;24875;48.436;10.298;2023-01-01T04:02:20;96709.56;;;10.00;100.00
39141;BME280;24875;48.436;10.298;2023-01-01T04:04:50;96707.22;;;9.81;100.00
39141;BME280;24875;48.436;10.298;2023-01-01T04:07:17;96718.72;;;9.80;100.00
39141;BME280;24875;48.436;10.298;2023-01-01T04:09:47;96717.91;;;9.88;100.00
39141;BME280;24875;48.436;10.298;2023-01-01T04:12:15;96716.72;;;9.74;100.00
39141;BME280;24875;48.436;10.298;2023-01-01T04:14:42;96715.25;;;9.80;100.00
39141;BME280;24875;48.436;10.298;2023-01-01T04:17:10;96712.13;;;9.84;100.00
39141;BME280;24875;48.436;10.298;2023-01-01T04:19:38;96708.84;;;9.82;100.00
39141;BME280;24875;48.436;10.298;2023-01-01T04:22:05;96715.06;;;9.73;100.00
39141;BME280;24875;48.436;10.298;2023-01-01T04:24:32;96712.91;;;9.69;100.00
39141;BME280;24875;48.436;10.298;2023-01-01T04:26:58;96713.78;;;9.85;100.00
39141;BME280;24875;48.436;10.298;2023-01-01T04:29:25;96713.63;;;9.87;100.00
39141;BME280;24875;48.436;10.298;2023-01-01T04:31:51;96714.44;;;9.87;100.00
39141;BME280;24875;48.436;10.298;2023-01-01T04:34:18;96723.19;;;9.88;100.00
39141;BME280;24875;48.436;10.298;2023-01-01T04:36:45;96729.97;;;9.98;100.00
39141;BME280;24875;48.436;10.298;2023-01-01T04:39:12;96715.50;;;10.02;100.00
39141;BME280;24875;48.436;10.298;2023-01-01T04:41:38;96716.31;;;10.03;100.00
39141;BME280;24875;48.436;10.298;2023-01-01T04:44:05;96714.69;;;10.10;100.00
39141;BME280;24875;48.436;10.298;2023-01-01T04:46:31;96713.53;;;10.20;100.00
39141;BME280;24875;48.436;10.298;2023-01-01T04:48:58;96717.16;;;10.19;100.00
39141;BME280;24875;48.436;10.298;2023-01-01T04:51:24;96718.00;;;10.20;100.00
39141;BME280;24875;48.436;10.298;2023-01-01T04:53:52;96726.88;;;10.34;100.00
39141;BME280;24875;48.436;10.298;2023-01-01T04:56:20;96718.50;;;10.31;100.00
39141;BME280;24875;48.436;10.298;2023-01-01T04:58:47;96722.78;;;10.40;100.00
39141;BME280;24875;48.436;10.298;2023-01-01T05:01:17;96731.00;;;10.37;100.00
39141;BME280;24875;48.436;10.298;2023-01-01T05:03:44;96724.94;;;10.29;100.00
39141;BME280;24875;48.436;10.298;2023-01-01T05:06:11;96722.25;;;10.21;100.00
39141;BME280;24875;48.436;10.298;2023-01-01T05:08:40;96724.38;;;10.09;100.00
39141;BME280;24875;48.436;10.298;2023-01-01T05:11:10;96722.44;;;10.19;100.00
39141;BME280;24875;48.436;10.298;2023-01-01T05:13:37;96725.88;;;10.12;100.00
39141;BME280;24875;48.436;10.298;2023-01-01T05:16:05;96725.22;;;10.18;100.00
39141;BME280;24875;48.436;10.298;2023-01-01T05:18:33;96721.44;;;10.12;100.00
39141;BME280;24875;48.436;10.298;2023-01-01T05:21:00;96728.38;;;10.13;100.00
39141;BME280;24875;48.436;10.298;2023-01-01T05:23:27;96721.44;;;10.12;100.00
39141;BME280;24875;48.436;10.298;2023-01-01T05:25:53;96730.66;;;10.08;100.00
39141;BME280;24875;48.436;10.298;2023-01-01T05:28:22;96730.00;;;10.14;100.00
39141;BME280;24875;48.436;10.298;2023-01-01T05:30:49;96730.16;;;10.05;100.00
39141;BME280;24875;48.436;10.298;2023-01-01T05:33:16;96732.44;;;10.00;100.00
39141;BME280;24875;48.436;10.298;2023-01-01T05:35:43;96740.47;;;9.90;100.00
39141;BME280;24875;48.436;10.298;2023-01-01T05:38:09;96743.41;;;9.87;100.00
39141;BME280;24875;48.436;10.298;2023-01-01T05:40:37;96741.44;;;9.89;100.00
39141;BME280;24875;48.436;10.298;2023-01-01T05:43:03;96759.06;;;9.56;100.00
39141;BME280;24875;48.436;10.298;2023-01-01T05:45:31;96763.88;;;9.60;100.00
39141;BME280;24875;48.436;10.298;2023-01-01T05:47:58;96770.72;;;9.53;100.00
39141;BME280;24875;48.436;10.298;2023-01-01T05:50:24;96781.69;;;9.08;100.00
39141;BME280;24875;48.436;10.298;2023-01-01T05:52:51;96781.81;;;9.06;100.00
39141;BME280;24875;48.436;10.298;2023-01-01T05:55:17;96794.31;;;9.04;100.00
39141;BME280;24875;48.436;10.298;2023-01-01T05:57:43;96796.56;;;8.99;100.00
39141;BME280;24875;48.436;10.298;2023-01-01T06:00:11;96795.09;;;9.05;100.00
39141;BME280;24875;48.436;10.298;2023-01-01T06:02:39;96802.63;;;9.00;100.00
39141;BME280;24875;48.436;10.298;2023-01-01T06:05:06;96807.63;;;8.85;100.00
39141;BME280;24875;48.436;10.298;2023-01-01T06:07:32;96806.94;;;8.83;100.00
39141;BME280;24875;48.436;10.298;2023-01-01T06:09:59;96802.44;;;8.93;100.00
39141;BME280;24875;48.436;10.298;2023-01-01T06:12:25;96800.47;;;8.95;100.00
39141;BME280;24875;48.436;10.298;2023-01-01T06:14:52;96792.66;;;9.03;100.00
39141;BME280;24875;48.436;10.298;2023-01-01T06:17:18;96793.31;;;9.05;100.00
39141;BME280;24875;48.436;10.298;2023-01-01T06:19:46;96791.50;;;9.31;100.00
39141;BME280;24875;48.436;10.298;2023-01-01T06:22:12;96792.47;;;9.30;100.00
39141;BME280;24875;48.436;10.298;2023-01-01T06:24:39;96788.91;;;9.39;100.00
39141;BME280;24875;48.436;10.298;2023-01-01T06:27:05;96797.78;;;9.38;100.00
39141;BME280;24875;48.436;10.298;2023-01-01T06:29:32;96798.50;;;9.48;100.00
39141;BME280;24875;48.436;10.298;2023-01-01T06:31:58;96801.44;;;9.45;100.00
39141;BME280;24875;48.436;10.298;2023-01-01T06:34:25;96796.22;;;9.53;100.00
39141;BME280;24875;48.436;10.298;2023-01-01T06:36:52;96801.25;;;9.71;100.00
39141;BME280;24875;48.436;10.298;2023-01-01T06:39:19;96807.97;;;9.66;100.00
39141;BME280;24875;48.436;10.298;2023-01-01T06:41:45;96802.06;;;9.72;100.00
39141;BME280;24875;48.436;10.298;2023-01-01T06:44:12;96805.72;;;9.79;100.00
39141;BME280;24875;48.436;10.298;2023-01-01T06:46:38;96806.19;;;9.74;100.00
39141;BME280;24875;48.436;10.298;2023-01-01T06:49:06;96802.59;;;9.75;100.00
39141;BME280;24875;48.436;10.298;2023-01-01T06:51:37;96807.03;;;9.75;100.00
39141;BME280;24875;48.436;10.298;2023-01-01T06:54:06;96806.81;;;9.68;100.00
39141;BME280;24875;48.436;10.298;2023-01-01T06:56:33;96811.69;;;9.56;100.00
39141;BME280;24875;48.436;10.298;2023-01-01T06:59:00;96805.09;;;9.52;100.00
39141;BME280;24875;48.436;10.298;2023-01-01T07:01:29;96808.69;;;9.51;100.00
39141;BME280;24875;48.436;10.298;2023-01-01T07:03:57;96809.38;;;9.53;100.00
39141;BME280;24875;48.436;10.298;2023-01-01T07:06:25;96819.22;;;9.51;100.00
39141;BME280;24875;48.436;10.298;2023-01-01T07:08:52;96819.03;;;9.44;100.00
39141;BME280;24875;48.436;10.298;2023-01-01T07:11:20;96813.75;;;9.44;100.00
39141;BME280;24875;48.436;10.298;2023-01-01T07:13:47;96818.81;;;9.38;100.00
39141;BME280;24875;48.436;10.298;2023-01-01T07:16:14;96825.75;;;9.39;100.00
39141;BME280;24875;48.436;10.298;2023-01-01T07:18:41;96827.22;;;9.41;100.00
39141;BME280;24875;48.436;10.298;2023-01-01T07:21:24;96829.97;;;9.57;100.00
39141;BME280;24875;48.436;10.298;2023-01-01T07:23:51;96835.66;;;9.45;100.00
39141;BME280;24875;48.436;10.298;2023-01-01T07:26:22;96838.66;;;9.50;100.00
39141;BME280;24875;48.436;10.298;2023-01-01T07:28:48;96845.81;;;9.40;100.00
39141;BME280;24875;48.436;10.298;2023-01-01T07:31:15;96849.22;;;9.32;100.00
39141;BME280;24875;48.436;10.298;2023-01-01T07:33:41;96853.84;;;9.38;100.00
39141;BME280;24875;48.436;10.298;2023-01-01T07:36:08;96852.56;;;9.42;100.00
39141;BME280;24875;48.436;10.298;2023-01-01T07:38:34;96856.41;;;9.30;100.00
39141;BME280;24875;48.436;10.298;2023-01-01T07:41:01;96867.16;;;9.37;100.00
39141;BME280;24875;48.436;10.298;2023-01-01T07:43:29;96868.56;;;9.49;100.00
39141;BME280;24875;48.436;10.298;2023-01-01T07:45:56;96863.91;;;9.43;100.00
39141;BME280;24875;48.436;10.298;2023-01-01T07:48:23;96870.44;;;9.39;100.00
39141;BME280;24875;48.436;10.298;2023-01-01T07:50:50;96868.22;;;9.26;100.00
39141;BME280;24875;48.436;10.298;2023-01-01T07:53:16;96862.19;;;9.34;100.00
39141;BME280;24875;48.436;10.298;2023-01-01T07:55:43;96862.56;;;9.39;100.00
39141;BME280;24875;48.436;10.298;2023-01-01T07:58:10;96868.88;;;9.46;100.00
39141;BME280;24875;48.436;10.298;2023-01-01T08:00:38;96865.75;;;9.50;100.00
39141;BME280;24875;48.436;10.298;2023-01-01T08:03:05;96875.88;;;9.37;100.00
39141;BME280;24875;48.436;10.298;2023-01-01T08:05:32;96877.41;;;9.48;100.00
39141;BME280;24875;48.436;10.298;2023-01-01T08:08:00;96881.25;;;10.12;100.00
39141;BME280;24875;48.436;10.298;2023-01-01T08:10:26;96885.56;;;10.86;100.00
39141;BME280;24875;48.436;10.298;2023-01-01T08:12:58;96870.88;;;11.47;100.00
39141;BME280;24875;48.436;10.298;2023-01-01T08:15:24;96877.31;;;11.68;100.00
39141;BME280;24875;48.436;10.298;2023-01-01T08:17:55;96878.81;;;11.39;100.00
39141;BME280;24875;48.436;10.298;2023-01-01T08:20:22;96884.25;;;11.13;100.00
39141;BME280;24875;48.436;10.298;2023-01-01T08:22:49;96881.94;;;10.87;100.00
39141;BME280;24875;48.436;10.298;2023-01-01T08:25:15;96883.06;;;10.68;100.00
39141;BME280;24875;48.436;10.298;2023-01-01T08:27:42;96880.44;;;10.60;100.00
39141;BME280;24875;48.436;10.298;2023-01-01T08:30:10;96876.81;;;10.77;100.00
39141;BME280;24875;48.436;10.298;2023-01-01T08:32:37;96862.16;;;10.83;100.00
39141;BME280;24875;48.436;10.298;2023-01-01T08:35:06;96860.34;;;11.15;100.00
39141;BME280;24875;48.436;10.298;2023-01-01T08:37:33;96858.56;;;11.15;100.00
39141;BME280;24875;48.436;10.298;2023-01-01T08:40:00;96871.75;;;11.15;100.00
39141;BME280;24875;48.436;10.298;2023-01-01T08:42:26;96868.75;;;11.26;100.00
39141;BME280;24875;48.436;10.298;2023-01-01T08:44:53;96876.16;;;11.47;100.00
39141;BME280;24875;48.436;10.298;2023-01-01T08:47:21;96872.19;;;11.74;100.00
39141;BME280;24875;48.436;10.298;2023-01-01T08:49:48;96872.25;;;12.05;100.00
39141;BME280;24875;48.436;10.298;2023-01-01T08:52:16;96869.03;;;12.25;100.00
39141;BME280;24875;48.436;10.298;2023-01-01T08:54:43;96877.91;;;12.32;100.00
39141;BME280;24875;48.436;10.298;2023-01-01T08:57:10;96871.72;;;12.55;98.44
39141;BME280;24875;48.436;10.298;2023-01-01T08:59:37;96873.94;;;12.66;97.46
39141;BME280;24875;48.436;10.298;2023-01-01T09:02:03;96880.19;;;12.73;96.95
39141;BME280;24875;48.436;10.298;2023-01-01T09:04:30;96884.41;;;12.90;96.35
39141;BME280;24875;48.436;10.298;2023-01-01T09:06:57;96881.53;;;12.99;95.93
39141;BME280;24875;48.436;10.298;2023-01-01T09:09:24;96891.22;;;13.07;95.06
39141;BME280;24875;48.436;10.298;2023-01-01T09:11:52;96889.75;;;13.27;94.31
39141;BME280;24875;48.436;10.298;2023-01-01T09:14:19;96897.22;;;13.23;94.39
39141;BME280;24875;48.436;10.298;2023-01-01T09:16:46;96894.22;;;13.26;94.61
39141;BME280;24875;48.436;10.298;2023-01-01T09:19:12;96898.00;;;13.32;94.11
39141;BME280;24875;48.436;10.298;2023-01-01T09:21:39;96899.41;;;13.42;93.42
39141;BME280;24875;48.436;10.298;2023-01-01T09:24:06;96894.31;;;13.55;93.22
39141;BME280;24875;48.436;10.298;2023-01-01T09:26:34;96896.53;;;13.66;92.97
39141;BME280;24875;48.436;10.298;2023-01-01T09:29:00;96900.31;;;13.49;92.62
39141;BME280;24875;48.436;10.298;2023-01-01T09:31:26;96902.38;;;13.76;92.03
39141;BME280;24875;48.436;10.298;2023-01-01T09:33:53;96904.31;;;13.67;92.76
39141;BME280;24875;48.436;10.298;2023-01-01T09:36:27;96903.81;;;14.15;92.62
39141;BME280;24875;48.436;10.298;2023-01-01T09:38:54;96893.31;;;14.36;94.90
39141;BME280;24875;48.436;10.298;2023-01-01T09:41:26;96901.34;;;14.57;90.76
39141;BME280;24875;48.436;10.298;2023-01-01T09:44:05;96898.56;;;14.64;88.70
39141;BME280;24875;48.436;10.298;2023-01-01T09:46:35;96901.88;;;14.52;90.57
39141;BME280;24875;48.436;10.298;2023-01-01T09:49:04;96907.53;;;14.63;89.03
39141;BME280;24875;48.436;10.298;2023-01-01T09:51:34;96892.53;;;14.70;87.48
39141;BME280;24875;48.436;10.298;2023-01-01T09:54:06;96900.03;;;14.67;89.17
39141;BME280;24875;48.436;10.298;2023-01-01T09:56:38;96899.50;;;14.71;87.24
39141;BME280;24875;48.436;10.298;2023-01-01T09:59:08;96902.94;;;14.72;87.79
39141;BME280;24875;48.436;10.298;2023-01-01T10:01:43;96886.72;;;14.81;87.67
39141;BME280;24875;48.436;10.298;2023-01-01T10:04:24;96897.84;;;14.70;87.67
39141;BME280;24875;48.436;10.298;2023-01-01T10:07:02;96897.19;;;14.68;87.95
39141;BME280;24875;48.436;10.298;2023-01-01T10:09:41;96889.66;;;14.51;88.45
39141;BME280;24875;48.436;10.298;2023-01-01T10:12:14;96886.16;;;14.65;88.81
39141;BME280;24875;48.436;10.298;2023-01-01T10:14:48;96884.91;;;14.67;88.71
39141;BME280;24875;48.436;10.298;2023-01-01T10:17:18;96884.19;;;14.73;87.44
39141;BME280;24875;48.436;10.298;2023-01-01T10:19:48;96881.34;;;14.75;86.90
39141;BME280;24875;48.436;10.298;2023-01-01T10:22:20;96878.75;;;14.81;86.51
39141;BME280;24875;48.436;10.298;2023-01-01T10:24:53;96869.31;;;14.93;87.00
39141;BME280;24875;48.436;10.298;2023-01-01T10:27:26;96869.00;;;14.82;88.15
39141;BME280;24875;48.436;10.298;2023-01-01T10:29:55;96870.25;;;14.86;87.87
39141;BME280;24875;48.436;10.298;2023-01-01T10:32:26;96863.69;;;15.03;87.04
39141;BME280;24875;48.436;10.298;2023-01-01T10:34:54;96881.94;;;14.91;87.95
39141;BME280;24875;48.436;10.298;2023-01-01T10:37:22;96865.28;;;14.97;87.01
39141;BME280;24875;48.436;10.298;2023-01-01T10:39:49;96877.03;;;15.09;88.03
39141;BME280;24875;48.436;10.298;2023-01-01T10:42:16;96872.63;;;15.16;86.40
39141;BME280;24875;48.436;10.298;2023-01-01T10:44:42;96870.13;;;15.15;86.61
39141;BME280;24875;48.436;10.298;2023-01-01T10:47:28;96857.09;;;15.34;84.55
39141;BME280;24875;48.436;10.298;2023-01-01T10:49:57;96860.16;;;15.37;85.60
39141;BME280;24875;48.436;10.298;2023-01-01T10:52:27;96864.22;;;15.54;84.71
39141;BME280;24875;48.436;10.298;2023-01-01T10:54:56;96861.56;;;15.54;84.57
39141;BME280;24875;48.436;10.298;2023-01-01T10:57:30;96858.06;;;15.54;85.10
39141;BME280;24875;48.436;10.298;2023-01-01T11:00:10;96854.50;;;15.68;83.75
39141;BME280;24875;48.436;10.298;2023-01-01T11:02:39;96848.22;;;15.48;84.42
39141;BME280;24875;48.436;10.298;2023-01-01T11:05:13;96858.78;;;15.41;84.72
39141;BME280;24875;48.436;10.298;2023-01-01T11:07:40;96847.22;;;15.28;84.58
39141;BME280;24875;48.436;10.298;2023-01-01T11:10:15;96853.72;;;15.25;83.72
39141;BME280;24875;48.436;10.298;2023-01-01T11:12:42;96847.88;;;15.16;84.50
39141;BME280;24875;48.436;10.298;2023-01-01T11:15:20;96839.00;;;15.23;83.41
39141;BME280;24875;48.436;10.298;2023-01-01T11:17:48;96837.16;;;15.03;84.44
39141;BME280;24875;48.436;10.298;2023-01-01T11:20:17;96831.91;;;15.09;84.99
39141;BME280;24875;48.436;10.298;2023-01-01T11:22:46;96835.63;;;15.15;84.96
39141;BME280;24875;48.436;10.298;2023-01-01T11:25:17;96837.25;;;15.16;85.30
39141;BME280;24875;48.436;10.298;2023-01-01T11:27:44;96839.72;;;15.17;85.34
39141;BME280;24875;48.436;10.298;2023-01-01T11:30:25;96839.91;;;15.30;85.44
39141;BME280;24875;48.436;10.298;2023-01-01T11:32:56;96834.03;;;15.41;85.11
39141;BME280;24875;48.436;10.298;2023-01-01T11:35:26;96832.03;;;15.43;84.76
39141;BME280;24875;48.436;10.298;2023-01-01T11:37:54;96830.34;;;15.35;84.49
39141;BME280;24875;48.436;10.298;2023-01-01T11:40:23;96824.56;;;15.32;84.77
39141;BME280;24875;48.436;10.298;2023-01-01T11:42:53;96823.91;;;15.24;85.02
39141;BME280;24875;48.436;10.298;2023-01-01T11:45:23;96810.91;;;15.35;84.24
39141;BME280;24875;48.436;10.298;2023-01-01T11:47:54;96818.59;;;15.51;84.30
39141;BME280;24875;48.436;10.298;2023-01-01T11:50:28;96817.94;;;15.70;83.44
39141;BME280;24875;48.436;10.298;2023-01-01T11:52:56;96816.53;;;15.74;83.26
39141;BME280;24875;48.436;10.298;2023-01-01T11:55:35;96821.53;;;15.89;82.89
39141;BME280;24875;48.436;10.298;2023-01-01T11:58:10;96815.34;;;15.83;82.97
39141;BME280;24875;48.436;10.298;2023-01-01T12:00:38;96804.72;;;15.83;83.22
39141;BME280;24875;48.436;10.298;2023-01-01T12:03:15;96797.75;;;15.82;81.12
39141;BME280;24875;48.436;10.298;2023-01-01T12:05:48;96804.25;;;15.73;81.64
39141;BME280;24875;48.436;10.298;2023-01-01T12:08:22;96799.41;;;15.83;81.78
39141;BME280;24875;48.436;10.298;2023-01-01T12:10:53;96794.03;;;15.70;81.91
39141;BME280;24875;48.436;10.298;2023-01-01T12:13:25;96791.56;;;15.68;81.95
39141;BME280;24875;48.436;10.298;2023-01-01T12:16:00;96795.50;;;15.79;82.01
39141;BME280;24875;48.436;10.298;2023-01-01T12:18:34;96785.66;;;15.73;82.74
39141;BME280;24875;48.436;10.298;2023-01-01T12:21:05;96786.66;;;15.72;84.07
39141;BME280;24875;48.436;10.298;2023-01-01T12:23:34;96789.72;;;15.69;83.38
39141;BME280;24875;48.436;10.298;2023-01-01T12:26:12;96785.34;;;15.88;83.17
39141;BME280;24875;48.436;10.298;2023-01-01T12:28:52;96780.28;;;16.00;82.83
39141;BME280;24875;48.436;10.298;2023-01-01T12:31:29;96781.13;;;16.07;83.27
39141;BME280;24875;48.436;10.298;2023-01-01T12:34:10;96773.91;;;16.28;82.65
39141;BME280;24875;48.436;10.298;2023-01-01T12:36:48;96773.91;;;16.28;82.68
39141;BME280;24875;48.436;10.298;2023-01-01T12:42:28;96768.19;;;16.31;82.96
39141;BME280;24875;48.436;10.298;2023-01-01T12:45:12;96759.63;;;16.42;81.63
39141;BME280;24875;48.436;10.298;2023-01-01T12:47:46;96758.97;;;16.27;81.54
39141;BME280;24875;48.436;10.298;2023-01-01T12:50:31;96748.38;;;16.47;80.83
39141;BME280;24875;48.436;10.298;2023-01-01T12:53:12;96743.66;;;16.36;81.06
39141;BME280;24875;48.436;10.298;2023-01-01T12:56:04;96740.41;;;16.53;80.50
39141;BME280;24875;48.436;10.298;2023-01-01T12:58:37;96738.50;;;16.34;81.24
39141;BME280;24875;48.436;10.298;2023-01-01T13:01:08;96733.41;;;16.39;81.23
39141;BME280;24875;48.436;10.298;2023-01-01T13:03:46;96729.72;;;16.40;81.33